createdAt,value
2019-05-26T00:00:23.824Z,11.50
2019-05-26T00:02:52.725Z,11.50
2019-05-26T00:05:21.611Z,11.50
2019-05-26T00:07:50.497Z,11.40
2019-05-26T00:10:19.557Z,11.40
2019-05-26T00:12:48.433Z,11.40
2019-05-26T00:15:17.514Z,11.40
2019-05-26T00:17:46.480Z,11.30
2019-05-26T00:20:15.450Z,11.30
2019-05-26T00:22:44.336Z,11.20
2019-05-26T00:25:14.738Z,11.20
2019-05-26T00:27:43.647Z,11.20
2019-05-26T00:30:12.827Z,11.10
2019-05-26T00:32:41.823Z,11.10
2019-05-26T00:35:10.762Z,11.10
2019-05-26T00:37:48.943Z,11.00
2019-05-26T00:40:10.859Z,11.00
2019-05-26T00:42:39.741Z,11.00
2019-05-26T00:45:09.446Z,10.90
2019-05-26T00:47:38.362Z,10.90
2019-05-26T00:50:08.839Z,10.90
2019-05-26T00:52:37.684Z,10.80
2019-05-26T00:55:08.504Z,10.80
2019-05-26T00:57:37.573Z,10.80
2019-05-26T01:00:09.023Z,10.80
2019-05-26T01:02:37.899Z,10.70
2019-05-26T01:05:08.744Z,10.70
2019-05-26T01:07:38.194Z,10.70
2019-05-26T01:10:09.819Z,10.60
2019-05-26T01:12:37.806Z,10.60
2019-05-26T01:15:08.335Z,10.60
2019-05-26T01:17:37.243Z,10.60
2019-05-26T01:20:06.820Z,10.60
2019-05-26T01:22:35.664Z,10.60
2019-05-26T01:25:07.264Z,10.50
2019-05-26T01:27:35.592Z,10.50
2019-05-26T01:30:07.333Z,10.50
2019-05-26T01:32:36.295Z,10.50
2019-05-26T01:35:07.319Z,10.50
2019-05-26T01:37:38.162Z,10.50
2019-05-26T01:40:07.514Z,10.50
2019-05-26T01:42:36.348Z,10.50
2019-05-26T01:45:06.870Z,10.50
2019-05-26T01:47:35.748Z,10.40
2019-05-26T01:50:07.283Z,10.40
2019-05-26T01:52:36.240Z,10.40
2019-05-26T01:55:07.592Z,10.40
2019-05-26T01:57:36.485Z,10.50
2019-05-26T02:00:07.263Z,10.40
2019-05-26T02:02:36.111Z,10.40
2019-05-26T02:05:05.727Z,10.40
2019-05-26T02:07:34.676Z,10.40
2019-05-26T02:10:04.947Z,10.40
2019-05-26T02:12:33.852Z,10.40
2019-05-26T02:15:02.795Z,10.40
2019-05-26T02:17:31.665Z,10.40
2019-05-26T02:20:00.542Z,10.40
2019-05-26T02:22:29.491Z,10.40
2019-05-26T02:24:58.372Z,10.40
2019-05-26T02:27:27.246Z,10.40
2019-05-26T02:29:56.198Z,10.40
2019-05-26T02:32:25.073Z,10.40
2019-05-26T02:34:54.002Z,10.40
2019-05-26T02:37:22.898Z,10.40
2019-05-26T02:39:51.785Z,10.30
2019-05-26T02:42:21.368Z,10.40
2019-05-26T02:44:50.360Z,10.40
2019-05-26T02:47:19.191Z,10.40
2019-05-26T02:49:48.070Z,10.40
2019-05-26T02:52:17.021Z,10.40
2019-05-26T02:54:45.865Z,10.40
2019-05-26T02:57:14.861Z,10.40
2019-05-26T02:59:43.717Z,10.40
2019-05-26T03:02:12.602Z,10.40
2019-05-26T03:04:42.008Z,10.40
2019-05-26T03:07:12.407Z,10.40
2019-05-26T03:09:43.221Z,10.40
2019-05-26T03:12:12.150Z,10.50
2019-05-26T03:14:44.045Z,10.40
2019-05-26T03:17:12.880Z,10.40
2019-05-26T03:19:42.136Z,10.40
2019-05-26T03:22:13.967Z,10.40
2019-05-26T03:24:45.191Z,10.40
2019-05-26T03:27:14.080Z,10.40
2019-05-26T03:29:42.962Z,10.40
2019-05-26T03:32:11.888Z,10.40
2019-05-26T03:34:40.828Z,10.40
2019-05-26T03:37:09.930Z,10.40
2019-05-26T03:39:45.515Z,10.40
2019-05-26T03:42:09.381Z,10.40
2019-05-26T03:44:38.304Z,10.40
2019-05-26T03:47:07.460Z,10.40
2019-05-26T03:49:36.315Z,10.40
2019-05-26T03:52:05.516Z,10.40
2019-05-26T03:54:34.441Z,10.30
2019-05-26T03:57:03.335Z,10.40
2019-05-26T03:59:32.295Z,10.40
2019-05-26T04:02:01.133Z,10.40
2019-05-26T04:04:30.006Z,10.40
2019-05-26T04:06:58.930Z,10.40
2019-05-26T04:09:27.811Z,10.40
2019-05-26T04:11:56.805Z,10.40
2019-05-26T04:14:25.721Z,10.40
2019-05-26T04:16:56.470Z,10.40
2019-05-26T04:19:25.443Z,10.50
2019-05-26T04:21:54.309Z,10.50
2019-05-26T04:24:23.806Z,10.50
2019-05-26T04:26:52.651Z,10.50
2019-05-26T04:29:21.556Z,10.60
2019-05-26T04:31:50.477Z,10.60
2019-05-26T04:34:19.337Z,10.60
2019-05-26T04:36:48.214Z,10.60
2019-05-26T04:39:17.163Z,10.60
2019-05-26T04:41:45.999Z,10.70
2019-05-26T04:44:14.882Z,10.60
2019-05-26T04:46:43.787Z,10.70
2019-05-26T04:49:12.632Z,10.80
2019-05-26T04:51:41.562Z,10.80
2019-05-26T04:54:10.438Z,10.90
2019-05-26T04:56:39.443Z,10.90
2019-05-26T04:59:08.409Z,11.00
2019-05-26T05:01:37.236Z,11.00
2019-05-26T05:04:06.092Z,11.00
2019-05-26T05:06:35.096Z,11.00
2019-05-26T05:09:05.425Z,11.10
2019-05-26T05:11:34.300Z,11.10
2019-05-26T05:14:03.259Z,11.10
2019-05-26T05:16:32.178Z,11.10
2019-05-26T05:19:01.023Z,11.10
2019-05-26T05:21:29.939Z,11.20
2019-05-26T05:23:58.830Z,11.20
2019-05-26T05:26:27.767Z,11.30
2019-05-26T05:28:56.730Z,11.30
2019-05-26T05:31:25.590Z,11.30
2019-05-26T05:33:54.477Z,11.30
2019-05-26T05:36:23.398Z,11.30
2019-05-26T05:38:52.286Z,11.30
2019-05-26T05:41:21.224Z,11.40
2019-05-26T05:43:50.153Z,11.40
2019-05-26T05:46:19.022Z,11.50
2019-05-26T05:48:47.968Z,11.50
2019-05-26T05:51:16.966Z,11.60
2019-05-26T05:53:45.851Z,11.70
2019-05-26T05:56:14.735Z,11.70
2019-05-26T05:58:44.494Z,11.80
2019-05-26T06:01:13.411Z,11.80
2019-05-26T06:03:42.267Z,11.90
2019-05-26T06:06:11.174Z,10.70
2019-05-26T06:08:40.021Z,12.10
2019-05-26T06:11:16.636Z,12.20
2019-05-26T06:13:39.729Z,12.20
2019-05-26T06:16:08.607Z,12.20
2019-05-26T06:18:37.562Z,12.30
2019-05-26T06:21:06.480Z,12.30
2019-05-26T06:23:37.076Z,12.40
2019-05-26T06:26:06.084Z,12.40
2019-05-26T06:28:34.929Z,12.40
2019-05-26T06:31:03.775Z,12.40
2019-05-26T06:33:32.735Z,12.50
2019-05-26T06:36:01.615Z,12.40
2019-05-26T06:38:30.555Z,12.50
2019-05-26T06:40:59.526Z,12.50
2019-05-26T06:43:28.377Z,13.60
2019-05-26T06:45:57.254Z,12.70
2019-05-26T06:48:27.051Z,12.70
2019-05-26T06:50:56.257Z,12.80
2019-05-26T06:55:54.174Z,12.90
2019-05-26T06:58:23.005Z,12.90
2019-05-26T07:00:52.029Z,12.90
2019-05-26T07:03:20.927Z,13.00
2019-05-26T07:05:49.805Z,13.00
2019-05-26T07:08:18.711Z,13.10
2019-05-26T07:10:47.619Z,13.20
2019-05-26T07:13:16.513Z,13.20
2019-05-26T07:15:45.467Z,13.30
2019-05-26T07:18:14.348Z,13.30
2019-05-26T07:20:43.532Z,13.20
2019-05-26T07:23:14.113Z,13.20
2019-05-26T07:25:43.028Z,13.20
2019-05-26T07:28:11.925Z,13.20
2019-05-26T07:30:40.857Z,13.10
2019-05-26T07:33:09.733Z,13.20
2019-05-26T07:35:38.649Z,13.20
2019-05-26T07:38:07.521Z,13.30
2019-05-26T07:40:36.409Z,13.20
2019-05-26T07:43:05.371Z,13.20
2019-05-26T07:45:34.266Z,13.20
2019-05-26T07:48:03.134Z,13.20
2019-05-26T07:50:32.128Z,13.20
2019-05-26T07:53:00.963Z,13.20
2019-05-26T07:55:29.855Z,13.20
2019-05-26T07:57:58.808Z,13.30
2019-05-26T08:00:27.762Z,13.40
2019-05-26T08:02:56.710Z,13.50
2019-05-26T08:05:25.558Z,13.60
2019-05-26T08:08:11.215Z,13.60
2019-05-26T08:10:25.069Z,13.70
2019-05-26T08:12:53.888Z,13.70
2019-05-26T08:15:22.800Z,13.80
2019-05-26T08:17:51.754Z,13.90
2019-05-26T08:20:20.674Z,13.90
2019-05-26T08:22:49.512Z,13.90
2019-05-26T08:25:18.462Z,13.90
2019-05-26T08:27:47.352Z,14.00
2019-05-26T08:30:16.478Z,14.10
2019-05-26T08:32:45.354Z,14.30
2019-05-26T08:35:15.032Z,14.50
2019-05-26T08:37:43.946Z,14.70
2019-05-26T08:40:18.808Z,14.70
2019-05-26T08:42:49.186Z,14.60
2019-05-26T08:45:21.433Z,14.50
2019-05-26T08:47:49.039Z,14.50
2019-05-26T08:50:18.565Z,14.30
2019-05-26T08:52:47.460Z,14.20
2019-05-26T08:55:16.637Z,14.20
2019-05-26T08:57:45.411Z,14.20
2019-05-26T09:00:15.566Z,14.20
2019-05-26T09:02:44.475Z,14.20
2019-05-26T09:05:14.970Z,14.20
2019-05-26T09:07:43.899Z,14.30
2019-05-26T09:10:13.147Z,14.40
2019-05-26T09:12:42.028Z,14.40
2019-05-26T09:15:11.241Z,14.50
2019-05-26T09:17:40.148Z,14.50
2019-05-26T09:20:11.631Z,14.60
2019-05-26T09:22:40.845Z,14.60
2019-05-26T09:25:09.919Z,14.50
2019-05-26T09:27:38.816Z,14.50
2019-05-26T09:30:09.031Z,14.50
2019-05-26T09:32:37.964Z,14.60
2019-05-26T09:35:08.160Z,14.70
2019-05-26T09:37:37.050Z,14.70
2019-05-26T09:40:09.438Z,14.70
2019-05-26T09:42:38.341Z,14.70
2019-05-26T09:45:08.651Z,14.80
2019-05-26T09:47:37.589Z,14.90
2019-05-26T09:50:06.966Z,14.90
2019-05-26T09:52:35.888Z,14.80
2019-05-26T09:55:07.214Z,14.80
2019-05-26T09:57:36.055Z,14.70
2019-05-26T10:00:09.498Z,14.60
2019-05-26T10:02:38.388Z,14.50
2019-05-26T10:05:08.973Z,14.50
2019-05-26T10:07:37.942Z,14.40
2019-05-26T10:10:10.297Z,14.40
2019-05-26T10:12:39.182Z,14.50
2019-05-26T10:15:09.452Z,14.50
2019-05-26T10:17:38.386Z,14.40
2019-05-26T10:20:08.192Z,14.40
2019-05-26T10:22:37.116Z,14.50
2019-05-26T10:25:07.920Z,14.60
2019-05-26T10:27:36.766Z,14.70
2019-05-26T10:30:08.427Z,14.70
2019-05-26T10:32:36.486Z,14.80
2019-05-26T10:35:08.625Z,14.80
2019-05-26T10:37:37.559Z,14.80
2019-05-26T10:40:08.065Z,15.00
2019-05-26T10:42:36.964Z,15.10
2019-05-26T10:45:08.032Z,15.30
2019-05-26T10:47:36.917Z,15.40
2019-05-26T10:50:07.809Z,15.50
2019-05-26T10:52:36.780Z,15.70
2019-05-26T10:55:07.781Z,15.90
2019-05-26T10:57:36.738Z,16.00
2019-05-26T11:00:08.087Z,16.10
2019-05-26T11:02:37.009Z,16.20
2019-05-26T11:05:09.235Z,16.20
2019-05-26T11:07:38.132Z,16.30
2019-05-26T11:10:08.158Z,16.40
2019-05-26T11:12:37.023Z,16.50
2019-05-26T11:15:08.491Z,16.50
2019-05-26T11:17:37.545Z,16.60
2019-05-26T11:20:08.396Z,16.70
2019-05-26T11:22:37.427Z,16.70
2019-05-26T11:25:08.274Z,16.60
2019-05-26T11:27:37.129Z,16.50
2019-05-26T11:30:11.307Z,16.50
2019-05-26T11:32:40.235Z,16.50
2019-05-26T11:35:10.269Z,16.60
2019-05-26T11:37:39.270Z,16.60
2019-05-26T11:40:08.525Z,16.70
2019-05-26T11:42:37.433Z,16.70
2019-05-26T11:45:07.826Z,16.70
2019-05-26T11:47:36.685Z,16.80
2019-05-26T11:50:09.623Z,16.80
2019-05-26T11:52:38.621Z,16.90
2019-05-26T11:55:07.716Z,16.90
2019-05-26T11:57:37.379Z,16.90
2019-05-26T12:00:10.419Z,16.90
2019-05-26T12:02:39.743Z,16.90
2019-05-26T12:05:09.125Z,16.80
2019-05-26T12:07:38.168Z,16.60
2019-05-26T12:10:13.777Z,16.50
2019-05-26T12:12:41.101Z,16.40
2019-05-26T12:15:10.235Z,16.20
2019-05-26T12:17:39.105Z,16.10
2019-05-26T12:20:09.634Z,16.00
2019-05-26T12:22:38.632Z,16.00
2019-05-26T12:25:08.736Z,15.90
2019-05-26T12:27:37.604Z,15.90
2019-05-26T12:30:10.211Z,16.00
2019-05-26T12:32:39.147Z,16.00
2019-05-26T12:35:11.285Z,16.10
2019-05-26T12:37:40.170Z,16.20
2019-05-26T12:40:09.778Z,16.30
2019-05-26T12:42:38.735Z,16.40
2019-05-26T12:45:09.330Z,16.40
2019-05-26T12:47:38.230Z,16.40
2019-05-26T12:50:09.357Z,16.30
2019-05-26T12:52:38.607Z,16.30
2019-05-26T12:55:09.882Z,16.30
2019-05-26T12:57:38.265Z,16.20
2019-05-26T13:00:12.848Z,16.10
2019-05-26T13:02:41.811Z,16.10
2019-05-26T13:05:10.742Z,16.20
2019-05-26T13:07:40.239Z,16.40
2019-05-26T13:10:10.891Z,16.50
2019-05-26T13:12:39.837Z,16.50
2019-05-26T13:15:10.684Z,16.40
2019-05-26T13:17:39.770Z,16.40
2019-05-26T13:20:09.926Z,16.40
2019-05-26T13:22:39.970Z,16.50
2019-05-26T13:25:10.602Z,16.60
2019-05-26T13:27:39.511Z,16.70
2019-05-26T13:30:16.971Z,16.80
2019-05-26T13:32:45.987Z,16.70
2019-05-26T13:35:16.498Z,16.60
2019-05-26T13:37:45.381Z,16.50
2019-05-26T13:40:15.912Z,16.50
2019-05-26T13:42:44.799Z,16.40
2019-05-26T13:45:22.564Z,16.50
2019-05-26T13:47:45.547Z,16.60
2019-05-26T13:50:16.348Z,16.70
2019-05-26T13:52:45.266Z,16.70
2019-05-26T13:55:14.887Z,16.70
2019-05-26T13:57:43.812Z,16.60
2019-05-26T14:00:16.810Z,16.50
2019-05-26T14:02:45.747Z,16.40
2019-05-26T14:05:15.317Z,16.30
2019-05-26T14:07:44.288Z,16.10
2019-05-26T14:10:13.193Z,16.20
2019-05-26T14:12:42.131Z,16.30
2019-05-26T14:15:13.107Z,16.40
2019-05-26T14:17:42.977Z,16.30
2019-05-26T14:20:12.180Z,16.20
2019-05-26T14:22:41.134Z,16.10
2019-05-26T14:25:10.483Z,16.00
2019-05-26T14:27:39.354Z,15.90
2019-05-26T14:30:10.049Z,15.90
2019-05-26T14:32:38.996Z,16.10
2019-05-26T14:35:08.050Z,16.10
2019-05-26T14:37:36.993Z,16.10
2019-05-26T14:40:09.812Z,16.10
2019-05-26T14:42:38.754Z,16.10
2019-05-26T14:45:08.194Z,16.20
2019-05-26T14:47:37.046Z,16.20
2019-05-26T14:50:09.903Z,16.20
2019-05-26T14:52:39.299Z,16.30
2019-05-26T14:55:08.751Z,16.30
2019-05-26T14:57:37.684Z,16.30
2019-05-26T15:00:08.422Z,16.20
2019-05-26T15:02:37.672Z,16.10
2019-05-26T15:05:07.161Z,16.00
2019-05-26T15:07:36.142Z,15.90
2019-05-26T15:10:09.047Z,15.90
2019-05-26T15:12:38.175Z,15.90
2019-05-26T15:15:08.769Z,15.90
2019-05-26T15:17:38.072Z,16.00
2019-05-26T15:20:07.601Z,16.00
2019-05-26T15:22:36.609Z,16.10
2019-05-26T15:25:08.842Z,16.20
2019-05-26T15:27:37.820Z,16.20
2019-05-26T15:30:08.267Z,16.20
2019-05-26T15:32:37.170Z,16.20
2019-05-26T15:35:07.685Z,16.30
2019-05-26T15:37:36.595Z,16.30
2019-05-26T15:40:10.099Z,16.30
2019-05-26T15:42:39.080Z,16.40
2019-05-26T15:45:08.645Z,16.40
2019-05-26T15:47:37.560Z,16.50
2019-05-26T15:50:08.251Z,16.60
2019-05-26T15:52:37.195Z,16.60
2019-05-26T15:55:06.287Z,16.60
2019-05-26T15:57:35.232Z,16.60
2019-05-26T16:00:07.017Z,16.60
2019-05-26T16:02:35.999Z,16.60
2019-05-26T16:05:06.251Z,16.70
2019-05-26T16:07:35.151Z,16.80
2019-05-26T16:10:06.536Z,16.80
2019-05-26T16:12:35.410Z,16.80
2019-05-26T16:15:06.102Z,16.80
2019-05-26T16:17:38.402Z,16.70
2019-05-26T16:20:07.273Z,16.70
2019-05-26T16:22:36.256Z,16.70
2019-05-26T16:25:06.479Z,16.70
2019-05-26T16:27:35.376Z,16.80
2019-05-26T16:30:07.260Z,16.80
2019-05-26T16:32:36.169Z,16.80
2019-05-26T16:35:05.798Z,16.70
2019-05-26T16:37:34.737Z,16.70
2019-05-26T16:40:04.967Z,16.70
2019-05-26T16:42:33.869Z,16.70
2019-05-26T16:45:06.967Z,16.60
2019-05-26T16:47:35.986Z,16.60
2019-05-26T16:50:06.906Z,16.60
2019-05-26T16:52:35.864Z,16.70
2019-05-26T16:55:06.387Z,16.70
2019-05-26T16:57:35.338Z,16.90
2019-05-26T17:00:05.928Z,16.80
2019-05-26T17:02:34.785Z,16.70
2019-05-26T17:05:03.910Z,16.70
2019-05-26T17:07:32.900Z,16.80
2019-05-26T17:10:01.924Z,16.90
2019-05-26T17:12:31.206Z,17.10
2019-05-26T17:15:00.346Z,17.30
2019-05-26T17:17:29.208Z,17.60
2019-05-26T17:19:58.247Z,17.80
2019-05-26T17:22:27.195Z,18.20
2019-05-26T17:24:56.100Z,18.40
2019-05-26T17:27:25.088Z,18.70
2019-05-26T17:29:53.933Z,19.00
2019-05-26T17:32:22.897Z,19.30
2019-05-26T17:34:51.808Z,19.70
2019-05-26T17:37:20.737Z,19.90
2019-05-26T17:39:49.646Z,20.20
2019-05-26T17:42:18.634Z,20.50
2019-05-26T17:44:47.487Z,21.00
2019-05-26T17:47:29.353Z,21.40
2019-05-26T17:49:47.039Z,21.60
2019-05-26T17:52:15.988Z,21.80
2019-05-26T17:54:44.991Z,22.10
2019-05-26T17:57:14.006Z,22.50
2019-05-26T17:59:42.925Z,22.90
2019-05-26T18:02:15.143Z,23.20
2019-05-26T18:04:44.168Z,23.40
2019-05-26T18:07:13.064Z,23.80
2019-05-26T18:09:44.488Z,24.00
2019-05-26T18:12:12.589Z,24.20
2019-05-26T18:14:41.487Z,24.30
2019-05-26T18:17:10.377Z,24.40
2019-05-26T18:19:39.358Z,24.50
2019-05-26T18:22:08.307Z,24.60
2019-05-26T18:24:37.317Z,24.70
2019-05-26T18:27:06.254Z,25.10
2019-05-26T18:29:35.166Z,25.30
2019-05-26T18:32:10.351Z,25.30
2019-05-26T18:34:39.309Z,25.40
2019-05-26T18:37:08.243Z,25.00
2019-05-26T18:39:37.258Z,24.20
2019-05-26T18:42:07.128Z,23.40
2019-05-26T18:44:36.891Z,22.50
2019-05-26T18:47:06.168Z,21.90
2019-05-26T18:49:35.082Z,21.20
2019-05-26T18:52:04.002Z,20.60
2019-05-26T18:54:32.961Z,20.10
2019-05-26T18:57:01.898Z,19.70
2019-05-26T18:59:30.835Z,19.30
2019-05-26T19:01:59.750Z,19.00
2019-05-26T19:04:28.718Z,18.80
2019-05-26T19:06:57.650Z,18.50
2019-05-26T19:09:26.557Z,18.30
2019-05-26T19:11:55.517Z,18.10
2019-05-26T19:14:24.510Z,17.90
2019-05-26T19:16:53.774Z,17.70
2019-05-26T19:19:22.717Z,17.60
2019-05-26T19:21:55.841Z,17.40
2019-05-26T19:24:24.715Z,17.30
2019-05-26T19:26:53.690Z,17.10
2019-05-26T19:29:22.687Z,17.00
2019-05-26T19:31:51.598Z,16.80
2019-05-26T19:34:20.496Z,16.70
2019-05-26T19:36:49.537Z,16.60
2019-05-26T19:39:18.423Z,16.40
2019-05-26T19:41:47.346Z,16.20
2019-05-26T19:44:16.276Z,16.10
2019-05-26T19:46:45.183Z,16.00
2019-05-26T19:49:14.106Z,15.80
2019-05-26T19:51:44.106Z,15.70
2019-05-26T19:54:13.046Z,15.50
2019-05-26T19:56:41.903Z,15.40
2019-05-26T19:59:10.902Z,15.30
2019-05-26T20:01:41.033Z,15.20
2019-05-26T20:04:10.051Z,15.10
2019-05-26T20:06:38.890Z,15.00
2019-05-26T20:09:08.790Z,14.80
2019-05-26T20:11:37.797Z,14.70
2019-05-26T20:14:06.726Z,14.60
2019-05-26T20:16:35.584Z,14.50
2019-05-26T20:19:05.153Z,14.40
2019-05-26T20:21:34.085Z,14.30
2019-05-26T20:24:02.987Z,14.20
2019-05-26T20:26:31.908Z,14.10
2019-05-26T20:29:00.812Z,14.10
2019-05-26T20:31:29.714Z,14.00
2019-05-26T20:33:58.730Z,14.00
2019-05-26T20:36:27.591Z,13.90
2019-05-26T20:38:56.523Z,13.80
2019-05-26T20:41:25.386Z,13.70
2019-05-26T20:43:54.290Z,13.60
2019-05-26T20:46:23.222Z,13.60
2019-05-26T20:48:52.258Z,13.50
2019-05-26T20:51:21.159Z,13.40
2019-05-26T20:53:50.081Z,13.40
2019-05-26T20:56:19.070Z,13.30
2019-05-26T20:58:47.990Z,13.20
2019-05-26T21:01:16.934Z,13.20
2019-05-26T21:03:45.897Z,13.10
2019-05-26T21:06:14.802Z,13.10
2019-05-26T21:08:43.737Z,13.10
2019-05-26T21:11:15.689Z,13.00
2019-05-26T21:13:44.589Z,13.00
2019-05-26T21:16:13.489Z,12.90
2019-05-26T21:18:42.436Z,12.90
2019-05-26T21:21:16.576Z,12.80
2019-05-26T21:23:45.480Z,12.80
2019-05-26T21:26:14.378Z,12.80
2019-05-26T21:28:43.308Z,12.70
2019-05-26T21:31:12.233Z,12.70
2019-05-26T21:33:41.193Z,12.70
2019-05-26T21:36:10.044Z,12.70
2019-05-26T21:38:38.934Z,12.60
2019-05-26T21:41:07.902Z,12.60
2019-05-26T21:43:36.807Z,12.50
2019-05-26T21:46:05.734Z,12.50
2019-05-26T21:48:34.934Z,12.50
2019-05-26T21:51:03.876Z,12.40
2019-05-26T21:53:32.821Z,12.40
2019-05-26T21:56:01.735Z,12.30
2019-05-26T21:58:30.586Z,12.30
2019-05-26T22:00:59.530Z,12.20
2019-05-26T22:03:28.453Z,12.20
2019-05-26T22:05:57.328Z,12.20
2019-05-26T22:08:26.257Z,12.10
2019-05-26T22:10:55.199Z,12.10
2019-05-26T22:13:24.106Z,12.00
2019-05-26T22:15:52.976Z,12.00
2019-05-26T22:18:21.894Z,12.00
2019-05-26T22:20:50.873Z,12.00
2019-05-26T22:23:19.808Z,12.00
2019-05-26T22:25:48.709Z,11.90
2019-05-26T22:28:17.584Z,11.90
2019-05-26T22:30:46.530Z,11.90
2019-05-26T22:33:15.462Z,11.90
2019-05-26T22:35:44.406Z,11.90
2019-05-26T22:38:13.289Z,11.80
2019-05-26T22:40:42.245Z,11.80
2019-05-26T22:43:11.194Z,11.80
2019-05-26T22:45:40.044Z,11.80
2019-05-26T22:48:08.983Z,11.80
2019-05-26T22:50:38.882Z,11.80
2019-05-26T22:53:07.824Z,11.80
2019-05-26T22:55:36.716Z,11.80
2019-05-26T22:58:05.745Z,11.70
2019-05-26T23:00:34.631Z,11.70
2019-05-26T23:03:03.531Z,11.70
2019-05-26T23:05:32.501Z,11.70
2019-05-26T23:08:01.391Z,11.70
2019-05-26T23:10:30.275Z,11.70
2019-05-26T23:12:59.270Z,11.70
2019-05-26T23:15:28.217Z,11.70
2019-05-26T23:17:57.111Z,11.70
2019-05-26T23:20:26.127Z,11.70
2019-05-26T23:22:55.066Z,11.70
2019-05-26T23:25:23.960Z,11.70
2019-05-26T23:27:52.861Z,11.70
2019-05-26T23:30:21.961Z,11.70
2019-05-26T23:32:50.930Z,11.70
2019-05-26T23:35:19.857Z,11.70
2019-05-26T23:37:48.772Z,11.70
2019-05-26T23:40:17.806Z,11.70
2019-05-26T23:42:46.699Z,11.70
2019-05-26T23:45:15.581Z,11.60
2019-05-26T23:47:44.452Z,11.70
2019-05-26T23:50:13.448Z,11.70
2019-05-26T23:52:42.378Z,11.70
2019-05-26T23:55:11.742Z,11.70
2019-05-26T23:57:40.626Z,11.70
